createdAt,value
2022-12-15T00:00:28.971Z,67.63
2022-12-15T00:03:14.996Z,64.63
2022-12-15T00:06:00.424Z,59.97
2022-12-15T00:08:46.202Z,62.47
2022-12-15T00:11:31.628Z,61.20
2022-12-15T00:14:17.281Z,61.07
2022-12-15T00:17:04.191Z,67.23
2022-12-15T00:19:49.700Z,65.60
2022-12-15T00:22:35.425Z,61.57
2022-12-15T00:25:21.211Z,58.60
2022-12-15T00:28:06.722Z,61.60
2022-12-15T00:30:53.259Z,60.93
2022-12-15T00:33:43.257Z,68.17
2022-12-15T00:36:28.929Z,62.63
2022-12-15T00:39:02.024Z,61.80
2022-12-15T00:41:32.105Z,61.73
2022-12-15T00:44:00.367Z,63.00
2022-12-15T00:46:46.194Z,62.07
2022-12-15T00:49:29.800Z,61.70
2022-12-15T00:52:15.850Z,55.63
2022-12-15T00:55:01.804Z,61.47
2022-12-15T00:57:47.185Z,56.60
2022-12-15T01:00:33.576Z,56.77
2022-12-15T01:03:19.320Z,56.33
2022-12-15T01:06:06.345Z,59.27
2022-12-15T01:08:51.860Z,55.70
2022-12-15T01:14:17.402Z,61.93
2022-12-15T01:17:02.868Z,57.87
2022-12-15T01:19:48.515Z,56.07
2022-12-15T01:22:19.265Z,56.87
2022-12-15T01:24:47.628Z,59.70
2022-12-15T01:27:15.901Z,58.53
2022-12-15T01:29:44.625Z,60.30
2022-12-15T01:32:14.138Z,57.47
2022-12-15T01:34:42.486Z,62.77
2022-12-15T01:37:10.788Z,60.17
2022-12-15T01:39:57.675Z,54.57
2022-12-15T01:42:26.036Z,56.40
2022-12-15T01:44:55.212Z,55.90
2022-12-15T01:47:26.623Z,55.77
2022-12-15T01:49:56.133Z,57.23
2022-12-15T01:52:24.488Z,53.93
2022-12-15T01:54:57.921Z,61.33
2022-12-15T01:57:29.735Z,58.33
2022-12-15T02:00:02.104Z,54.77
2022-12-15T02:02:36.934Z,61.00
2022-12-15T02:05:10.032Z,52.77
2022-12-15T02:07:39.429Z,64.93
2022-12-15T02:10:12.325Z,61.97
2022-12-15T02:12:45.410Z,57.67
2022-12-15T02:15:21.831Z,57.37
2022-12-15T02:17:58.688Z,58.60
2022-12-15T02:20:47.552Z,56.13
2022-12-15T02:23:59.072Z,59.30
2022-12-15T02:27:12.103Z,52.20
2022-12-15T02:30:26.567Z,52.63
2022-12-15T02:33:21.974Z,51.00
2022-12-15T02:35:57.993Z,55.03
2022-12-15T02:38:31.582Z,56.33
2022-12-15T02:41:01.180Z,54.13
2022-12-15T02:43:31.569Z,60.07
2022-12-15T02:46:16.764Z,60.97
2022-12-15T02:48:59.677Z,58.13
2022-12-15T02:51:41.468Z,59.90
2022-12-15T02:54:43.730Z,59.97
2022-12-15T02:57:18.470Z,56.13
2022-12-15T02:59:55.684Z,59.97
2022-12-15T03:02:26.666Z,63.37
2022-12-15T03:04:57.108Z,65.77
2022-12-15T03:07:27.897Z,69.93
2022-12-15T03:09:57.663Z,64.70
2022-12-15T03:12:25.943Z,64.67
2022-12-15T03:14:54.352Z,61.90
2022-12-15T03:17:22.814Z,63.37
2022-12-15T03:19:51.221Z,59.40
2022-12-15T03:22:20.980Z,63.97
2022-12-15T03:24:49.499Z,56.80
2022-12-15T03:27:17.891Z,62.03
2022-12-15T03:29:46.263Z,59.30
2022-12-15T03:32:14.744Z,58.60
2022-12-15T03:34:43.234Z,61.27
2022-12-15T03:37:11.538Z,60.10
2022-12-15T03:39:41.354Z,63.20
2022-12-15T03:42:09.769Z,60.00
2022-12-15T03:44:38.189Z,63.40
2022-12-15T03:47:07.557Z,60.87
2022-12-15T03:49:35.908Z,54.20
2022-12-15T03:52:04.184Z,60.33
2022-12-15T03:54:32.560Z,59.67
2022-12-15T03:57:02.217Z,58.47
2022-12-15T03:59:31.544Z,61.20
2022-12-15T04:01:59.926Z,63.90
2022-12-15T04:04:28.617Z,67.17
2022-12-15T04:06:57.141Z,70.53
2022-12-15T04:09:25.618Z,69.67
2022-12-15T04:11:54.013Z,71.57
2022-12-15T04:14:23.887Z,68.67
2022-12-15T04:16:52.551Z,69.77
2022-12-15T04:19:38.368Z,74.03
2022-12-15T04:22:06.792Z,69.20
2022-12-15T04:24:52.650Z,69.77
2022-12-15T04:27:38.734Z,69.90
2022-12-15T04:30:27.286Z,68.17
2022-12-15T04:33:13.696Z,67.57
2022-12-15T04:36:00.609Z,64.67
2022-12-15T04:38:50.590Z,62.23
2022-12-15T04:41:39.727Z,65.00
2022-12-15T04:44:26.365Z,69.07
2022-12-15T04:47:13.988Z,70.17
2022-12-15T04:50:00.586Z,68.33
2022-12-15T04:52:47.602Z,64.27
2022-12-15T04:55:34.660Z,70.50
2022-12-15T04:58:24.709Z,69.97
2022-12-15T05:01:11.575Z,67.13
2022-12-15T05:03:58.767Z,67.80
2022-12-15T05:06:44.621Z,67.83
2022-12-15T05:09:30.532Z,66.43
2022-12-15T05:12:16.614Z,69.07
2022-12-15T05:15:01.994Z,60.60
2022-12-15T05:17:48.548Z,70.77
2022-12-15T05:20:35.717Z,76.47
2022-12-15T05:23:21.244Z,73.10
2022-12-15T05:26:07.045Z,72.20
2022-12-15T05:28:52.865Z,74.80
2022-12-15T05:31:38.756Z,74.17
2022-12-15T05:34:07.241Z,74.50
2022-12-15T05:36:36.883Z,83.77
2022-12-15T05:39:05.446Z,84.83
2022-12-15T05:41:33.735Z,91.20
2022-12-15T05:44:02.463Z,85.50
2022-12-15T05:46:30.890Z,94.17
2022-12-15T05:48:59.296Z,95.57
2022-12-15T05:51:27.693Z,90.77
2022-12-15T05:53:57.364Z,84.33
2022-12-15T05:56:27.140Z,81.30
2022-12-15T05:58:56.472Z,81.40
2022-12-15T06:01:28.915Z,76.30
2022-12-15T06:03:57.347Z,77.17
2022-12-15T06:06:26.290Z,77.13
2022-12-15T06:08:56.089Z,78.27
2022-12-15T06:11:24.693Z,76.73
2022-12-15T06:13:54.191Z,80.47
2022-12-15T06:16:24.416Z,79.47
2022-12-15T06:18:55.731Z,76.60
2022-12-15T06:21:25.877Z,81.30
2022-12-15T06:23:54.713Z,77.77
2022-12-15T06:26:26.581Z,77.43
2022-12-15T06:28:57.282Z,72.93
2022-12-15T06:31:26.977Z,72.23
2022-12-15T06:34:01.681Z,75.70
2022-12-15T06:36:31.758Z,73.27
2022-12-15T06:39:01.058Z,70.17
2022-12-15T06:41:31.131Z,70.13
2022-12-15T06:44:00.018Z,68.20
2022-12-15T06:46:29.967Z,70.10
2022-12-15T06:48:59.231Z,74.13
2022-12-15T06:51:28.946Z,74.97
2022-12-15T06:53:57.236Z,76.10
2022-12-15T06:56:32.501Z,75.13
2022-12-15T06:59:05.230Z,74.07
2022-12-15T07:01:33.904Z,73.53
2022-12-15T07:04:04.524Z,72.30
2022-12-15T07:06:36.549Z,69.20
2022-12-15T07:09:08.359Z,77.53
2022-12-15T07:11:37.164Z,76.77
2022-12-15T07:14:06.825Z,69.70
2022-12-15T07:16:35.222Z,69.67
2022-12-15T07:19:06.556Z,71.63
2022-12-15T07:21:34.749Z,73.00
2022-12-15T07:24:03.608Z,78.57
2022-12-15T07:26:32.261Z,73.47
2022-12-15T07:29:00.631Z,74.03
2022-12-15T07:31:31.995Z,74.73
2022-12-15T07:34:00.690Z,76.50
2022-12-15T07:36:28.991Z,73.90
2022-12-15T07:39:01.909Z,75.27
2022-12-15T07:41:30.359Z,86.50
2022-12-15T07:43:59.251Z,81.83
2022-12-15T07:46:29.225Z,76.47
2022-12-15T07:48:57.555Z,77.80
2022-12-15T07:51:26.053Z,81.43
2022-12-15T07:53:54.462Z,71.50
2022-12-15T07:56:22.786Z,68.83
2022-12-15T07:58:51.901Z,67.33
2022-12-15T08:01:20.387Z,78.00
2022-12-15T08:03:51.296Z,79.63
2022-12-15T08:06:19.608Z,79.47
2022-12-15T08:08:50.582Z,75.63
2022-12-15T08:11:20.672Z,84.70
2022-12-15T08:14:02.693Z,79.77
2022-12-15T08:16:32.143Z,80.50
2022-12-15T08:19:01.883Z,84.27
2022-12-15T08:21:31.369Z,80.27
2022-12-15T08:24:00.905Z,79.33
2022-12-15T08:26:30.889Z,75.53
2022-12-15T08:29:32.075Z,80.63
2022-12-15T08:31:52.524Z,80.83
2022-12-15T08:34:23.921Z,80.87
2022-12-15T08:36:52.406Z,83.87
2022-12-15T08:39:21.666Z,91.43
2022-12-15T08:41:50.744Z,85.23
2022-12-15T08:44:19.118Z,87.83
2022-12-15T08:46:47.357Z,87.30
2022-12-15T08:49:21.402Z,88.63
2022-12-15T08:51:52.508Z,96.77
2022-12-15T08:54:21.732Z,84.73
2022-12-15T08:56:50.289Z,94.57
2022-12-15T08:59:19.142Z,98.13
2022-12-15T09:01:47.863Z,101.20
2022-12-15T09:04:16.664Z,97.40
2022-12-15T09:06:46.782Z,107.87
2022-12-15T09:09:20.936Z,103.13
2022-12-15T09:11:49.557Z,109.33
2022-12-15T09:14:21.582Z,109.90
2022-12-15T09:16:54.229Z,108.27
2022-12-15T09:19:22.667Z,112.83
2022-12-15T09:21:50.883Z,109.60
2022-12-15T09:24:29.186Z,109.43
2022-12-15T09:27:04.234Z,114.27
2022-12-15T09:29:32.854Z,116.17
2022-12-15T09:32:01.275Z,121.80
2022-12-15T09:34:30.288Z,121.87
2022-12-15T09:36:58.650Z,124.23
2022-12-15T09:39:28.481Z,122.30
2022-12-15T09:42:00.924Z,119.83
2022-12-15T09:44:31.486Z,123.37
2022-12-15T09:47:10.034Z,121.07
2022-12-15T09:49:51.801Z,118.47
2022-12-15T09:52:23.362Z,119.00
2022-12-15T09:54:53.310Z,118.67
2022-12-15T09:57:32.569Z,120.43
2022-12-15T10:00:12.753Z,120.73
2022-12-15T10:03:25.955Z,118.63
2022-12-15T10:06:16.189Z,117.57
2022-12-15T10:08:50.507Z,115.80
2022-12-15T10:11:28.446Z,114.23
2022-12-15T10:14:06.334Z,113.47
2022-12-15T10:16:41.257Z,108.17
2022-12-15T10:19:14.720Z,110.93
2022-12-15T10:21:43.650Z,105.43
2022-12-15T10:24:44.486Z,108.33
2022-12-15T10:27:23.804Z,104.83
2022-12-15T10:30:01.605Z,102.00
2022-12-15T10:32:42.635Z,100.97
2022-12-15T10:35:16.549Z,100.37
2022-12-15T10:37:45.122Z,99.97
2022-12-15T10:40:18.999Z,100.60
2022-12-15T10:42:50.927Z,99.43
2022-12-15T10:45:39.860Z,96.53
2022-12-15T10:48:19.029Z,98.43
2022-12-15T10:50:48.435Z,96.80
2022-12-15T10:53:39.643Z,95.53
2022-12-15T10:56:09.575Z,94.67
2022-12-15T10:58:50.257Z,93.80
2022-12-15T11:01:20.791Z,93.40
2022-12-15T11:03:52.849Z,95.63
2022-12-15T11:06:23.951Z,95.13
2022-12-15T11:08:54.427Z,94.23
2022-12-15T11:11:50.410Z,93.27
2022-12-15T11:14:24.124Z,87.90
2022-12-15T11:16:56.415Z,87.77
2022-12-15T11:19:40.378Z,86.33
2022-12-15T11:22:18.332Z,82.80
2022-12-15T11:24:51.908Z,84.40
2022-12-15T11:27:27.536Z,81.17
2022-12-15T11:30:03.177Z,75.93
2022-12-15T11:32:36.037Z,79.67
2022-12-15T11:35:04.904Z,79.90
2022-12-15T11:37:39.402Z,76.37
2022-12-15T11:40:39.124Z,71.30
2022-12-15T11:43:32.925Z,66.07
2022-12-15T11:46:23.885Z,64.03
2022-12-15T11:49:28.710Z,62.03
2022-12-15T11:52:02.354Z,61.67
2022-12-15T11:54:41.593Z,59.97
2022-12-15T11:57:39.264Z,57.67
2022-12-15T12:00:11.850Z,55.67
2022-12-15T12:03:09.335Z,54.57
2022-12-15T12:05:53.101Z,52.00
2022-12-15T12:08:47.072Z,51.17
2022-12-15T12:11:22.362Z,46.63
2022-12-15T12:14:11.472Z,44.87
2022-12-15T12:16:50.464Z,44.17
2022-12-15T12:19:24.839Z,42.07
2022-12-15T12:22:21.431Z,38.93
2022-12-15T12:24:53.893Z,36.37
2022-12-15T12:27:31.987Z,37.90
2022-12-15T12:30:05.552Z,35.30
2022-12-15T12:32:45.779Z,34.17
2022-12-15T12:35:31.825Z,35.53
2022-12-15T12:38:04.273Z,34.00
2022-12-15T12:40:49.765Z,32.50
2022-12-15T12:43:41.552Z,33.47
2022-12-15T12:46:22.584Z,34.67
2022-12-15T12:48:56.225Z,33.37
2022-12-15T12:52:08.220Z,34.03
2022-12-15T12:54:48.631Z,34.27
2022-12-15T12:57:55.902Z,32.50
2022-12-15T13:01:28.912Z,29.67
2022-12-15T13:04:12.050Z,35.37
2022-12-15T13:07:17.173Z,29.17
2022-12-15T13:10:02.110Z,27.27
2022-12-15T13:12:51.904Z,30.97
2022-12-15T13:15:37.447Z,30.43
2022-12-15T13:20:42.471Z,26.80
2022-12-15T13:23:44.165Z,26.33
2022-12-15T13:29:25.804Z,28.87
2022-12-15T13:36:05.024Z,33.43
2022-12-15T13:43:35.892Z,31.60
2022-12-15T13:46:24.705Z,29.90
2022-12-15T13:48:56.834Z,29.53
2022-12-15T13:51:51.627Z,28.17
2022-12-15T13:54:24.621Z,32.17
2022-12-15T13:57:08.255Z,31.60
2022-12-15T13:59:43.884Z,28.73
2022-12-15T14:02:28.569Z,31.00
2022-12-15T14:08:23.278Z,27.93
2022-12-15T14:11:51.820Z,30.20
2022-12-15T14:14:20.627Z,29.23
2022-12-15T14:16:54.241Z,29.97
2022-12-15T14:19:22.633Z,26.57
2022-12-15T14:21:52.881Z,25.47
2022-12-15T14:24:42.261Z,29.10
2022-12-15T14:27:35.998Z,26.53
2022-12-15T14:30:22.534Z,24.40
2022-12-15T14:35:49.484Z,31.17
2022-12-15T14:38:23.597Z,33.03
2022-12-15T14:40:56.557Z,35.40
2022-12-15T14:43:28.676Z,35.77
2022-12-15T14:46:07.764Z,36.50
2022-12-15T14:48:42.075Z,35.70
2022-12-15T14:51:13.704Z,36.00
2022-12-15T14:53:44.737Z,34.03
2022-12-15T14:59:20.844Z,33.60
2022-12-15T15:01:58.565Z,33.60
2022-12-15T15:03:14.541Z,32.63
2022-12-15T15:04:32.643Z,34.37
2022-12-15T15:07:03.280Z,35.80
2022-12-15T15:09:34.824Z,37.90
2022-12-15T15:12:05.729Z,46.97
2022-12-15T15:14:38.763Z,47.20
2022-12-15T15:17:17.001Z,46.10
2022-12-15T15:19:51.842Z,54.03
2022-12-15T15:22:32.149Z,50.23
2022-12-15T15:25:00.653Z,55.90
2022-12-15T15:27:36.689Z,59.67
2022-12-15T15:30:21.726Z,63.83
2022-12-15T15:32:58.278Z,60.83
2022-12-15T15:35:32.987Z,62.10
2022-12-15T15:38:05.087Z,66.70
2022-12-15T15:40:33.568Z,68.63
2022-12-15T15:43:01.935Z,71.20
2022-12-15T15:45:31.180Z,71.77
2022-12-15T15:47:59.647Z,77.77
2022-12-15T15:50:30.948Z,79.43
2022-12-15T15:53:00.078Z,77.80
2022-12-15T15:55:37.834Z,79.73
2022-12-15T15:58:12.413Z,84.23
2022-12-15T16:00:41.368Z,82.53
2022-12-15T16:03:11.007Z,79.83
2022-12-15T16:05:41.879Z,79.13
2022-12-15T16:08:16.655Z,84.60
2022-12-15T16:10:48.418Z,92.20
2022-12-15T16:13:25.520Z,91.00
2022-12-15T16:15:54.654Z,90.20
2022-12-15T16:18:23.374Z,86.70
2022-12-15T16:20:53.664Z,98.03
2022-12-15T16:23:25.050Z,99.87
2022-12-15T16:25:55.482Z,101.00
2022-12-15T16:28:25.715Z,103.93
2022-12-15T16:30:54.368Z,102.17
2022-12-15T16:33:23.138Z,110.30
2022-12-15T16:35:53.221Z,116.60
2022-12-15T16:38:26.242Z,113.13
2022-12-15T16:40:55.467Z,116.00
2022-12-15T16:43:34.529Z,115.80
2022-12-15T16:46:06.024Z,115.70
2022-12-15T16:48:34.995Z,114.93
2022-12-15T16:51:08.121Z,120.17
2022-12-15T16:53:40.399Z,123.73
2022-12-15T16:56:14.313Z,127.10
2022-12-15T16:58:48.494Z,122.10
2022-12-15T17:01:17.305Z,124.07
2022-12-15T17:03:45.839Z,125.03
2022-12-15T17:06:17.615Z,130.07
2022-12-15T17:08:50.956Z,127.07
2022-12-15T17:11:21.522Z,127.57
2022-12-15T17:13:51.477Z,128.87
2022-12-15T17:16:21.328Z,133.07
2022-12-15T17:18:50.243Z,131.47
2022-12-15T17:21:22.243Z,149.90
2022-12-15T17:23:53.196Z,136.83
2022-12-15T17:26:29.111Z,134.87
2022-12-15T17:29:02.371Z,138.97
2022-12-15T17:31:35.758Z,140.50
2022-12-15T17:34:24.016Z,146.23
2022-12-15T17:36:53.953Z,149.60
2022-12-15T17:39:23.532Z,147.30
2022-12-15T17:42:01.198Z,153.00
2022-12-15T17:44:35.606Z,153.30
2022-12-15T17:47:06.638Z,153.63
2022-12-15T17:49:37.805Z,152.17
2022-12-15T17:52:16.913Z,160.57
2022-12-15T17:54:45.499Z,160.97
2022-12-15T17:57:14.045Z,163.67
2022-12-15T17:59:42.869Z,172.80
2022-12-15T18:02:13.707Z,155.07
2022-12-15T18:04:42.585Z,175.07
2022-12-15T18:07:18.168Z,164.63
2022-12-15T18:09:46.761Z,157.33
2022-12-15T18:12:19.935Z,161.37
2022-12-15T18:14:48.325Z,161.27
2022-12-15T18:17:16.817Z,165.73
2022-12-15T18:19:45.244Z,164.43
2022-12-15T18:22:18.562Z,175.30
2022-12-15T18:24:47.418Z,170.97
2022-12-15T18:27:21.942Z,178.27
2022-12-15T18:29:51.353Z,170.63
2022-12-15T18:32:21.557Z,168.33
2022-12-15T18:34:50.569Z,172.23
2022-12-15T18:37:22.976Z,171.83
2022-12-15T18:39:52.390Z,173.87
2022-12-15T18:42:23.257Z,182.37
2022-12-15T18:44:53.625Z,190.97
2022-12-15T18:47:25.124Z,183.60
2022-12-15T18:49:53.516Z,182.10
2022-12-15T18:52:30.076Z,181.57
2022-12-15T18:55:01.377Z,185.40
2022-12-15T18:57:31.492Z,179.03
2022-12-15T19:00:00.938Z,174.70
2022-12-15T19:02:29.323Z,174.67
2022-12-15T19:04:57.700Z,176.27
2022-12-15T19:07:27.659Z,180.20
2022-12-15T19:09:56.553Z,182.50
2022-12-15T19:12:25.273Z,184.53
2022-12-15T19:14:55.303Z,185.83
2022-12-15T19:17:42.703Z,179.67
2022-12-15T19:20:34.905Z,177.03
2022-12-15T19:23:05.844Z,168.33
2022-12-15T19:25:35.051Z,170.40
2022-12-15T19:28:03.358Z,169.73
2022-12-15T19:30:40.242Z,165.87
2022-12-15T19:33:09.824Z,168.87
2022-12-15T19:35:39.240Z,175.33
2022-12-15T19:38:09.529Z,173.13
2022-12-15T19:40:38.626Z,171.33
2022-12-15T19:43:07.311Z,176.37
2022-12-15T19:45:35.642Z,168.97
2022-12-15T19:48:04.668Z,170.40
2022-12-15T19:50:37.352Z,170.23
2022-12-15T19:53:18.405Z,172.57
2022-12-15T19:55:46.719Z,187.27
2022-12-15T19:58:27.536Z,184.17
2022-12-15T20:00:57.713Z,191.97
2022-12-15T20:03:27.148Z,195.87
2022-12-15T20:05:57.430Z,202.17
2022-12-15T20:08:31.413Z,201.97
2022-12-15T20:10:59.791Z,197.00
2022-12-15T20:13:28.219Z,190.40
2022-12-15T20:15:56.660Z,186.23
2022-12-15T20:18:24.969Z,188.27
2022-12-15T20:20:53.825Z,185.47
2022-12-15T20:23:27.621Z,179.50
2022-12-15T20:25:58.915Z,189.67
2022-12-15T20:28:29.341Z,181.07
2022-12-15T20:30:58.750Z,178.77
2022-12-15T20:33:27.075Z,179.57
2022-12-15T20:35:55.374Z,175.33
2022-12-15T20:38:32.892Z,163.13
2022-12-15T20:41:03.800Z,165.77
2022-12-15T20:43:35.263Z,165.87
2022-12-15T20:46:07.684Z,162.93
2022-12-15T20:48:37.665Z,164.70
2022-12-15T20:51:09.907Z,158.93
2022-12-15T20:53:39.015Z,159.07
2022-12-15T20:56:09.215Z,151.47
2022-12-15T20:58:40.148Z,162.10
2022-12-15T21:01:19.396Z,159.87
2022-12-15T21:03:48.936Z,163.00
2022-12-15T21:06:17.986Z,161.43
2022-12-15T21:08:47.729Z,167.00
2022-12-15T21:11:20.475Z,170.73
2022-12-15T21:13:49.758Z,167.70
2022-12-15T21:16:20.633Z,168.17
2022-12-15T21:19:18.746Z,162.80
2022-12-15T21:21:40.919Z,172.43
2022-12-15T21:24:16.312Z,175.13
2022-12-15T21:26:46.887Z,171.30
2022-12-15T21:29:17.015Z,171.47
2022-12-15T21:31:46.115Z,171.97
2022-12-15T21:34:18.227Z,164.07
2022-12-15T21:36:51.833Z,168.90
2022-12-15T21:39:25.519Z,168.17
2022-12-15T21:41:55.276Z,157.97
2022-12-15T21:44:26.070Z,153.13
2022-12-15T21:46:54.654Z,158.00
2022-12-15T21:49:22.265Z,157.20
2022-12-15T21:51:55.131Z,161.80
2022-12-15T21:54:30.764Z,156.67
2022-12-15T21:57:02.822Z,157.63
2022-12-15T21:59:32.935Z,158.10
2022-12-15T22:02:02.551Z,160.80
2022-12-15T22:04:32.959Z,150.17
2022-12-15T22:07:01.505Z,152.77
2022-12-15T22:09:29.899Z,151.93
2022-12-15T22:11:58.604Z,157.00
2022-12-15T22:14:29.972Z,157.43
2022-12-15T22:16:59.439Z,159.23
2022-12-15T22:19:28.007Z,157.77
2022-12-15T22:21:56.210Z,155.47
2022-12-15T22:24:24.508Z,157.73
2022-12-15T22:26:52.896Z,152.63
2022-12-15T22:29:23.414Z,163.80
2022-12-15T22:31:53.207Z,124.97
2022-12-15T22:34:25.627Z,147.30
2022-12-15T22:36:54.828Z,151.13
2022-12-15T22:39:24.546Z,144.13
2022-12-15T22:41:53.698Z,150.47
2022-12-15T22:44:25.040Z,143.57
2022-12-15T22:46:57.457Z,143.17
2022-12-15T22:49:31.363Z,140.77
2022-12-15T22:51:59.538Z,139.80
2022-12-15T22:54:29.369Z,134.70
2022-12-15T22:57:01.952Z,137.07
2022-12-15T22:59:34.723Z,133.90
2022-12-15T23:02:05.061Z,131.70
2022-12-15T23:04:33.751Z,135.47
2022-12-15T23:07:04.518Z,133.37
2022-12-15T23:09:32.798Z,133.80
2022-12-15T23:12:00.083Z,136.63
2022-12-15T23:14:42.687Z,133.17
2022-12-15T23:17:12.810Z,129.80
2022-12-15T23:19:45.009Z,134.37
2022-12-15T23:22:13.438Z,131.43
2022-12-15T23:24:41.848Z,139.23
2022-12-15T23:27:12.138Z,129.57
2022-12-15T23:29:40.485Z,128.90
2022-12-15T23:32:08.732Z,123.93
2022-12-15T23:34:38.301Z,129.57
2022-12-15T23:37:06.635Z,121.00
2022-12-15T23:39:34.883Z,124.17
2022-12-15T23:42:03.090Z,119.23
2022-12-15T23:44:33.399Z,120.83
2022-12-15T23:47:01.705Z,118.67
2022-12-15T23:49:30.022Z,120.37
2022-12-15T23:51:59.739Z,118.47
2022-12-15T23:54:28.337Z,114.10
2022-12-15T23:56:56.622Z,109.90
2022-12-15T23:59:25.004Z,106.57
